sensor_id;sensor_type;location;lat;lon;timestamp;pressure;altitude;pressure_sealevel;temperature;humidity
59170;BME280;52474;52.236;5.114;2023-08-08T00:11:27;101410.63;;;14.42;100.00
59170;BME280;52474;52.236;5.114;2023-08-08T00:14:31;101440.94;;;14.60;100.00
59170;BME280;52474;52.236;5.114;2023-08-08T00:17:09;101442.72;;;14.69;100.00
59170;BME280;52474;52.236;5.114;2023-08-08T00:30:13;101465.56;;;14.91;100.00
59170;BME280;52474;52.236;5.114;2023-08-08T00:52:58;101467.78;;;14.96;100.00
59170;BME280;52474;52.236;5.114;2023-08-08T01:01:10;101461.91;;;15.02;100.00
59170;BME280;52474;52.236;5.114;2023-08-08T01:08:57;101467.06;;;15.03;100.00
59170;BME280;52474;52.236;5.114;2023-08-08T01:20:09;101454.59;;;15.04;100.00
59170;BME280;52474;52.236;5.114;2023-08-08T01:39:17;101452.47;;;15.08;100.00
59170;BME280;52474;52.236;5.114;2023-08-08T02:01:07;101425.09;;;15.06;100.00
59170;BME280;52474;52.236;5.114;2023-08-08T02:31:32;101389.88;;;14.45;100.00
59170;BME280;52474;52.236;5.114;2023-08-08T02:43:54;101409.50;;;14.54;100.00
59170;BME280;52474;52.236;5.114;2023-08-08T02:56:29;101379.06;;;14.37;100.00
59170;BME280;52474;52.236;5.114;2023-08-08T03:04:27;101330.91;;;13.91;100.00
59170;BME280;52474;52.236;5.114;2023-08-08T03:07:32;101383.88;;;14.24;100.00
59170;BME280;52474;52.236;5.114;2023-08-08T03:10:24;101365.22;;;14.24;100.00
59170;BME280;52474;52.236;5.114;2023-08-08T03:18:44;101334.09;;;13.85;100.00
59170;BME280;52474;52.236;5.114;2023-08-08T03:26:48;101386.25;;;14.17;100.00
59170;BME280;52474;52.236;5.114;2023-08-08T03:47:54;101313.91;;;13.53;100.00
59170;BME280;52474;52.236;5.114;2023-08-08T03:51:00;101313.25;;;13.51;100.00
59170;BME280;52474;52.236;5.114;2023-08-08T04:15:52;101366.19;;;13.55;100.00
59170;BME280;52474;52.236;5.114;2023-08-08T04:28:05;101367.84;;;13.56;100.00
59170;BME280;52474;52.236;5.114;2023-08-08T04:40:12;101308.81;;;13.21;100.00
59170;BME280;52474;52.236;5.114;2023-08-08T04:48:18;101367.16;;;13.63;100.00
59170;BME280;52474;52.236;5.114;2023-08-08T05:01:25;101312.22;;;13.33;100.00
59170;BME280;52474;52.236;5.114;2023-08-08T05:09:20;101364.94;;;13.68;100.00
59170;BME280;52474;52.236;5.114;2023-08-08T05:17:02;101272.84;;;13.17;100.00
59170;BME280;52474;52.236;5.114;2023-08-08T05:19:38;101365.38;;;13.73;100.00
59170;BME280;52474;52.236;5.114;2023-08-08T05:22:28;101335.91;;;13.56;100.00
59170;BME280;52474;52.236;5.114;2023-08-08T05:25:09;101343.66;;;13.59;100.00
59170;BME280;52474;52.236;5.114;2023-08-08T05:28:19;101339.28;;;13.58;100.00
59170;BME280;52474;52.236;5.114;2023-08-08T05:31:24;101284.75;;;13.23;100.00
59170;BME280;52474;52.236;5.114;2023-08-08T05:34:43;101369.41;;;13.78;100.00
59170;BME280;52474;52.236;5.114;2023-08-08T05:42:15;101325.84;;;13.49;100.00
59170;BME280;52474;52.236;5.114;2023-08-08T05:45:41;101310.16;;;13.46;100.00
59170;BME280;52474;52.236;5.114;2023-08-08T05:49:23;101375.03;;;13.84;100.00
59170;BME280;52474;52.236;5.114;2023-08-08T06:01:33;101339.84;;;13.81;100.00
59170;BME280;52474;52.236;5.114;2023-08-08T06:17:31;101373.09;;;14.15;100.00
59170;BME280;52474;52.236;5.114;2023-08-08T06:20:19;101311.44;;;13.91;100.00
59170;BME280;52474;52.236;5.114;2023-08-08T06:40:43;101321.06;;;14.21;100.00
59170;BME280;52474;52.236;5.114;2023-08-08T06:43:31;101311.09;;;14.23;100.00
59170;BME280;52474;52.236;5.114;2023-08-08T06:55:59;101371.22;;;15.02;100.00
59170;BME280;52474;52.236;5.114;2023-08-08T06:59:05;101324.81;;;15.13;100.00
59170;BME280;52474;52.236;5.114;2023-08-08T07:01:55;101351.31;;;15.70;100.00
59170;BME280;52474;52.236;5.114;2023-08-08T07:05:32;101344.56;;;16.01;100.00
59170;BME280;52474;52.236;5.114;2023-08-08T07:12:46;101358.34;;;17.19;100.00
59170;BME280;52474;52.236;5.114;2023-08-08T07:17:34;101378.97;;;16.92;100.00
59170;BME280;52474;52.236;5.114;2023-08-08T07:50:26;101301.50;;;18.48;100.00
59170;BME280;52474;52.236;5.114;2023-08-08T08:11:10;101351.34;;;19.38;100.00
59170;BME280;52474;52.236;5.114;2023-08-08T08:23:43;101329.78;;;18.83;100.00
59170;BME280;52474;52.236;5.114;2023-08-08T08:27:56;101346.91;;;19.76;100.00
59170;BME280;52474;52.236;5.114;2023-08-08T08:40:14;101357.22;;;20.10;100.00
59170;BME280;52474;52.236;5.114;2023-08-08T08:46:34;101349.69;;;19.60;100.00
59170;BME280;52474;52.236;5.114;2023-08-08T08:49:12;101335.19;;;19.69;100.00
59170;BME280;52474;52.236;5.114;2023-08-08T08:52:33;101313.97;;;19.28;100.00
59170;BME280;52474;52.236;5.114;2023-08-08T08:55:38;101337.34;;;19.73;100.00
59170;BME280;52474;52.236;5.114;2023-08-08T08:58:40;101346.00;;;18.90;100.00
59170;BME280;52474;52.236;5.114;2023-08-08T09:01:25;101339.03;;;18.48;100.00
59170;BME280;52474;52.236;5.114;2023-08-08T09:07:12;101368.03;;;19.25;100.00
59170;BME280;52474;52.236;5.114;2023-08-08T09:10:09;101321.28;;;19.34;100.00
59170;BME280;52474;52.236;5.114;2023-08-08T09:13:20;101341.22;;;18.61;100.00
59170;BME280;52474;52.236;5.114;2023-08-08T09:16:21;101341.72;;;18.56;100.00
59170;BME280;52474;52.236;5.114;2023-08-08T09:19:23;101362.09;;;19.29;100.00
59170;BME280;52474;52.236;5.114;2023-08-08T09:22:41;101327.09;;;19.15;100.00
59170;BME280;52474;52.236;5.114;2023-08-08T09:38:29;101341.19;;;19.48;100.00
59170;BME280;52474;52.236;5.114;2023-08-08T09:41:14;101362.09;;;18.90;100.00
59170;BME280;52474;52.236;5.114;2023-08-08T09:43:44;101348.38;;;18.93;100.00
59170;BME280;52474;52.236;5.114;2023-08-08T09:46:17;101371.03;;;18.91;100.00
59170;BME280;52474;52.236;5.114;2023-08-08T09:48:49;101312.50;;;19.17;100.00
59170;BME280;52474;52.236;5.114;2023-08-08T09:51:25;101332.09;;;19.80;100.00
59170;BME280;52474;52.236;5.114;2023-08-08T09:53:52;101335.81;;;19.79;100.00
59170;BME280;52474;52.236;5.114;2023-08-08T09:56:26;101330.25;;;19.26;100.00
59170;BME280;52474;52.236;5.114;2023-08-08T09:58:53;101319.78;;;19.08;100.00
59170;BME280;52474;52.236;5.114;2023-08-08T10:01:23;101352.66;;;19.11;100.00
59170;BME280;52474;52.236;5.114;2023-08-08T10:03:54;101383.91;;;19.97;100.00
59170;BME280;52474;52.236;5.114;2023-08-08T10:06:30;101377.16;;;20.01;100.00
59170;BME280;52474;52.236;5.114;2023-08-08T10:09:06;101390.03;;;20.06;100.00
59170;BME280;52474;52.236;5.114;2023-08-08T10:11:59;101353.19;;;19.68;100.00
59170;BME280;52474;52.236;5.114;2023-08-08T10:14:48;101373.78;;;19.45;100.00
59170;BME280;52474;52.236;5.114;2023-08-08T10:17:41;101366.59;;;19.77;100.00
59170;BME280;52474;52.236;5.114;2023-08-08T10:20:42;101385.16;;;20.09;100.00
59170;BME280;52474;52.236;5.114;2023-08-08T10:23:20;101396.91;;;19.85;100.00
59170;BME280;52474;52.236;5.114;2023-08-08T10:26:32;101358.22;;;19.40;100.00
59170;BME280;52474;52.236;5.114;2023-08-08T10:29:18;101358.34;;;19.16;100.00
59170;BME280;52474;52.236;5.114;2023-08-08T10:32:08;101347.72;;;18.83;100.00
59170;BME280;52474;52.236;5.114;2023-08-08T10:35:03;101321.22;;;18.88;100.00
59170;BME280;52474;52.236;5.114;2023-08-08T10:37:59;101341.72;;;19.43;100.00
59170;BME280;52474;52.236;5.114;2023-08-08T10:40:43;101383.47;;;19.54;100.00
59170;BME280;52474;52.236;5.114;2023-08-08T10:43:27;101355.31;;;19.50;100.00
59170;BME280;52474;52.236;5.114;2023-08-08T10:46:02;101363.53;;;19.48;100.00
59170;BME280;52474;52.236;5.114;2023-08-08T10:48:51;101356.94;;;19.28;100.00
59170;BME280;52474;52.236;5.114;2023-08-08T10:51:34;101350.28;;;19.47;100.00
59170;BME280;52474;52.236;5.114;2023-08-08T10:54:26;101353.91;;;19.85;100.00
59170;BME280;52474;52.236;5.114;2023-08-08T10:57:24;101374.22;;;20.11;100.00
59170;BME280;52474;52.236;5.114;2023-08-08T11:00:44;101345.41;;;19.73;100.00
59170;BME280;52474;52.236;5.114;2023-08-08T11:03:38;101341.19;;;19.48;100.00
59170;BME280;52474;52.236;5.114;2023-08-08T11:06:22;101334.53;;;19.04;100.00
59170;BME280;52474;52.236;5.114;2023-08-08T11:09:06;101331.72;;;19.37;100.00
59170;BME280;52474;52.236;5.114;2023-08-08T11:11:40;101349.94;;;19.42;100.00
59170;BME280;52474;52.236;5.114;2023-08-08T11:14:28;101395.81;;;19.40;100.00
59170;BME280;52474;52.236;5.114;2023-08-08T11:17:14;101372.75;;;19.15;100.00
59170;BME280;52474;52.236;5.114;2023-08-08T11:20:04;101372.81;;;19.69;100.00
59170;BME280;52474;52.236;5.114;2023-08-08T11:22:36;101358.28;;;19.86;100.00
59170;BME280;52474;52.236;5.114;2023-08-08T11:25:40;101394.34;;;19.92;100.00
59170;BME280;52474;52.236;5.114;2023-08-08T11:28:34;101355.38;;;19.65;100.00
59170;BME280;52474;52.236;5.114;2023-08-08T11:31:01;101350.38;;;19.85;100.00
59170;BME280;52474;52.236;5.114;2023-08-08T11:33:34;101358.34;;;19.47;100.00
59170;BME280;52474;52.236;5.114;2023-08-08T11:36:11;101350.94;;;19.18;100.00
59170;BME280;52474;52.236;5.114;2023-08-08T11:38:58;101345.38;;;19.50;100.00
59170;BME280;52474;52.236;5.114;2023-08-08T11:41:26;101358.81;;;19.50;100.00
59170;BME280;52474;52.236;5.114;2023-08-08T11:43:55;101330.09;;;19.51;100.00
59170;BME280;52474;52.236;5.114;2023-08-08T11:46:28;101324.78;;;19.43;100.00
59170;BME280;52474;52.236;5.114;2023-08-08T11:49:06;101343.28;;;19.61;100.00
59170;BME280;52474;52.236;5.114;2023-08-08T11:51:38;101337.31;;;19.50;100.00
59170;BME280;52474;52.236;5.114;2023-08-08T11:54:11;101319.56;;;19.41;100.00
59170;BME280;52474;52.236;5.114;2023-08-08T11:56:45;101326.06;;;19.24;100.00
59170;BME280;52474;52.236;5.114;2023-08-08T11:59:19;101311.06;;;19.38;100.00
59170;BME280;52474;52.236;5.114;2023-08-08T12:01:56;101344.13;;;19.69;100.00
59170;BME280;52474;52.236;5.114;2023-08-08T12:04:28;101353.38;;;19.90;100.00
59170;BME280;52474;52.236;5.114;2023-08-08T12:07:01;101362.78;;;19.31;100.00
59170;BME280;52474;52.236;5.114;2023-08-08T12:09:36;101362.09;;;19.29;100.00
59170;BME280;52474;52.236;5.114;2023-08-08T12:12:08;101355.75;;;19.53;100.00
59170;BME280;52474;52.236;5.114;2023-08-08T12:14:38;101355.25;;;19.27;100.00
59170;BME280;52474;52.236;5.114;2023-08-08T12:17:14;101353.75;;;19.56;100.00
59170;BME280;52474;52.236;5.114;2023-08-08T12:19:50;101346.63;;;19.40;100.00
59170;BME280;52474;52.236;5.114;2023-08-08T12:22:19;101333.44;;;19.30;100.00
59170;BME280;52474;52.236;5.114;2023-08-08T12:24:45;101352.41;;;19.51;100.00
59170;BME280;52474;52.236;5.114;2023-08-08T12:27:11;101363.59;;;19.71;100.00
59170;BME280;52474;52.236;5.114;2023-08-08T12:29:38;101329.16;;;19.67;100.00
59170;BME280;52474;52.236;5.114;2023-08-08T12:32:30;101373.06;;;20.28;100.00
59170;BME280;52474;52.236;5.114;2023-08-08T12:34:58;101366.44;;;19.93;100.00
59170;BME280;52474;52.236;5.114;2023-08-08T12:37:24;101384.84;;;20.04;100.00
59170;BME280;52474;52.236;5.114;2023-08-08T12:39:50;101372.19;;;19.59;100.00
59170;BME280;52474;52.236;5.114;2023-08-08T12:42:19;101346.41;;;19.18;100.00
59170;BME280;52474;52.236;5.114;2023-08-08T12:44:45;101352.41;;;20.44;100.00
59170;BME280;52474;52.236;5.114;2023-08-08T12:47:14;101354.91;;;20.07;100.00
59170;BME280;52474;52.236;5.114;2023-08-08T12:49:40;101369.03;;;19.55;100.00
59170;BME280;52474;52.236;5.114;2023-08-08T12:52:07;101374.94;;;20.05;100.00
59170;BME280;52474;52.236;5.114;2023-08-08T12:54:33;101366.66;;;20.29;100.00
59170;BME280;52474;52.236;5.114;2023-08-08T12:57:03;101336.28;;;20.58;100.00
59170;BME280;52474;52.236;5.114;2023-08-08T12:59:30;101379.19;;;20.37;100.00
59170;BME280;52474;52.236;5.114;2023-08-08T13:01:59;101323.03;;;20.19;100.00
59170;BME280;52474;52.236;5.114;2023-08-08T13:04:27;101378.72;;;20.33;100.00
59170;BME280;52474;52.236;5.114;2023-08-08T13:06:54;101345.84;;;19.54;100.00
59170;BME280;52474;52.236;5.114;2023-08-08T13:09:20;101385.63;;;19.59;100.00
59170;BME280;52474;52.236;5.114;2023-08-08T13:11:47;101355.00;;;19.45;100.00
59170;BME280;52474;52.236;5.114;2023-08-08T13:14:13;101359.03;;;19.41;100.00
59170;BME280;52474;52.236;5.114;2023-08-08T13:16:39;101360.97;;;19.24;100.00
59170;BME280;52474;52.236;5.114;2023-08-08T13:19:05;101324.69;;;18.97;100.00
59170;BME280;52474;52.236;5.114;2023-08-08T13:21:31;101356.22;;;19.34;100.00
59170;BME280;52474;52.236;5.114;2023-08-08T13:23:57;101370.66;;;19.64;100.00
59170;BME280;52474;52.236;5.114;2023-08-08T13:26:24;101345.91;;;19.46;100.00
59170;BME280;52474;52.236;5.114;2023-08-08T13:28:50;101376.84;;;19.73;100.00
59170;BME280;52474;52.236;5.114;2023-08-08T13:31:16;101360.00;;;19.48;100.00
59170;BME280;52474;52.236;5.114;2023-08-08T13:33:42;101398.25;;;19.19;100.00
59170;BME280;52474;52.236;5.114;2023-08-08T13:36:11;101350.03;;;18.94;100.00
59170;BME280;52474;52.236;5.114;2023-08-08T13:38:37;101399.22;;;19.26;100.00
59170;BME280;52474;52.236;5.114;2023-08-08T13:41:06;101402.94;;;19.25;100.00
59170;BME280;52474;52.236;5.114;2023-08-08T13:43:32;101375.50;;;18.98;100.00
59170;BME280;52474;52.236;5.114;2023-08-08T13:45:59;101381.03;;;19.36;100.00
59170;BME280;52474;52.236;5.114;2023-08-08T13:48:26;101417.75;;;19.13;100.00
59170;BME280;52474;52.236;5.114;2023-08-08T13:50:52;101415.22;;;19.11;100.00
59170;BME280;52474;52.236;5.114;2023-08-08T13:53:19;101399.53;;;19.31;100.00
59170;BME280;52474;52.236;5.114;2023-08-08T13:55:45;101387.75;;;19.40;100.00
59170;BME280;52474;52.236;5.114;2023-08-08T13:58:11;101369.25;;;19.45;100.00
59170;BME280;52474;52.236;5.114;2023-08-08T14:00:37;101412.16;;;19.62;100.00
59170;BME280;52474;52.236;5.114;2023-08-08T14:03:04;101415.28;;;19.34;100.00
59170;BME280;52474;52.236;5.114;2023-08-08T14:05:31;101364.66;;;18.83;100.00
59170;BME280;52474;52.236;5.114;2023-08-08T14:07:57;101365.88;;;18.56;100.00
59170;BME280;52474;52.236;5.114;2023-08-08T14:10:23;101396.00;;;18.75;100.00
59170;BME280;52474;52.236;5.114;2023-08-08T14:12:49;101362.94;;;18.99;100.00
59170;BME280;52474;52.236;5.114;2023-08-08T14:15:15;101358.91;;;19.03;100.00
59170;BME280;52474;52.236;5.114;2023-08-08T14:17:42;101378.56;;;18.87;100.00
59170;BME280;52474;52.236;5.114;2023-08-08T14:20:08;101404.19;;;19.06;100.00
59170;BME280;52474;52.236;5.114;2023-08-08T14:22:38;101382.53;;;19.07;100.00
59170;BME280;52474;52.236;5.114;2023-08-08T14:25:04;101345.72;;;18.69;100.00
59170;BME280;52474;52.236;5.114;2023-08-08T14:27:32;101380.44;;;18.78;100.00
59170;BME280;52474;52.236;5.114;2023-08-08T14:29:58;101377.09;;;18.76;100.00
59170;BME280;52474;52.236;5.114;2023-08-08T14:32:27;101362.66;;;18.69;100.00
59170;BME280;52474;52.236;5.114;2023-08-08T14:34:57;101390.00;;;18.81;100.00
59170;BME280;52474;52.236;5.114;2023-08-08T14:37:33;101335.00;;;18.77;100.00
59170;BME280;52474;52.236;5.114;2023-08-08T14:40:03;101325.13;;;18.61;100.00
59170;BME280;52474;52.236;5.114;2023-08-08T14:42:34;101338.28;;;18.95;100.00
59170;BME280;52474;52.236;5.114;2023-08-08T14:45:04;101382.84;;;19.44;100.00
59170;BME280;52474;52.236;5.114;2023-08-08T14:47:36;101356.59;;;19.54;100.00
59170;BME280;52474;52.236;5.114;2023-08-08T14:50:03;101335.00;;;19.16;100.00
59170;BME280;52474;52.236;5.114;2023-08-08T14:52:37;101365.50;;;19.23;100.00
59170;BME280;52474;52.236;5.114;2023-08-08T14:55:15;101385.94;;;19.72;100.00
59170;BME280;52474;52.236;5.114;2023-08-08T14:57:41;101391.41;;;19.79;100.00
59170;BME280;52474;52.236;5.114;2023-08-08T15:00:07;101391.50;;;19.62;100.00
59170;BME280;52474;52.236;5.114;2023-08-08T15:02:35;101393.06;;;19.48;100.00
59170;BME280;52474;52.236;5.114;2023-08-08T15:05:01;101400.25;;;19.56;100.00
59170;BME280;52474;52.236;5.114;2023-08-08T15:07:28;101400.56;;;19.30;100.00
59170;BME280;52474;52.236;5.114;2023-08-08T15:09:56;101404.81;;;19.16;100.00
59170;BME280;52474;52.236;5.114;2023-08-08T15:12:27;101408.16;;;19.18;100.00
59170;BME280;52474;52.236;5.114;2023-08-08T15:14:53;101405.84;;;19.15;100.00
59170;BME280;52474;52.236;5.114;2023-08-08T15:17:21;101406.31;;;19.19;100.00
59170;BME280;52474;52.236;5.114;2023-08-08T15:19:48;101399.28;;;19.18;100.00
59170;BME280;52474;52.236;5.114;2023-08-08T15:22:16;101397.47;;;19.02;100.00
59170;BME280;52474;52.236;5.114;2023-08-08T15:24:43;101402.28;;;19.23;100.00
59170;BME280;52474;52.236;5.114;2023-08-08T15:27:11;101400.78;;;19.20;100.00
59170;BME280;52474;52.236;5.114;2023-08-08T15:29:38;101392.22;;;19.17;100.00
59170;BME280;52474;52.236;5.114;2023-08-08T15:32:05;101392.91;;;19.11;100.00
59170;BME280;52474;52.236;5.114;2023-08-08T15:34:34;101397.09;;;19.13;100.00
59170;BME280;52474;52.236;5.114;2023-08-08T15:37:00;101391.75;;;19.05;100.00
59170;BME280;52474;52.236;5.114;2023-08-08T15:39:28;101397.78;;;19.07;100.00
59170;BME280;52474;52.236;5.114;2023-08-08T15:41:55;101395.28;;;18.97;100.00
59170;BME280;52474;52.236;5.114;2023-08-08T15:44:24;101390.78;;;18.98;100.00
59170;BME280;52474;52.236;5.114;2023-08-08T15:46:51;101391.41;;;19.08;100.00
59170;BME280;52474;52.236;5.114;2023-08-08T15:49:20;101390.59;;;19.07;100.00
59170;BME280;52474;52.236;5.114;2023-08-08T15:51:49;101396.94;;;19.06;100.00
59170;BME280;52474;52.236;5.114;2023-08-08T15:54:16;101362.66;;;18.85;100.00
59170;BME280;52474;52.236;5.114;2023-08-08T15:56:45;101382.44;;;18.84;100.00
59170;BME280;52474;52.236;5.114;2023-08-08T15:59:16;101371.53;;;18.78;100.00
59170;BME280;52474;52.236;5.114;2023-08-08T16:01:44;101366.19;;;18.61;100.00
59170;BME280;52474;52.236;5.114;2023-08-08T16:04:12;101375.22;;;18.60;100.00
59170;BME280;52474;52.236;5.114;2023-08-08T16:06:43;101373.59;;;18.51;100.00
59170;BME280;52474;52.236;5.114;2023-08-08T16:09:10;101381.66;;;18.51;100.00
59170;BME280;52474;52.236;5.114;2023-08-08T16:11:37;101380.63;;;18.52;100.00
59170;BME280;52474;52.236;5.114;2023-08-08T16:14:05;101384.16;;;18.44;100.00
59170;BME280;52474;52.236;5.114;2023-08-08T16:16:32;101372.06;;;18.57;100.00
59170;BME280;52474;52.236;5.114;2023-08-08T16:19:00;101384.31;;;18.51;100.00
59170;BME280;52474;52.236;5.114;2023-08-08T16:21:27;101379.59;;;18.61;100.00
59170;BME280;52474;52.236;5.114;2023-08-08T16:23:56;101377.75;;;18.62;100.00
59170;BME280;52474;52.236;5.114;2023-08-08T16:26:24;101397.53;;;18.69;100.00
59170;BME280;52474;52.236;5.114;2023-08-08T16:28:51;101383.81;;;18.48;100.00
59170;BME280;52474;52.236;5.114;2023-08-08T16:31:18;101384.50;;;18.33;100.00
59170;BME280;52474;52.236;5.114;2023-08-08T16:33:48;101383.50;;;18.34;100.00
59170;BME280;52474;52.236;5.114;2023-08-08T16:36:16;101392.06;;;18.21;100.00
59170;BME280;52474;52.236;5.114;2023-08-08T16:38:45;101377.16;;;18.19;100.00
59170;BME280;52474;52.236;5.114;2023-08-08T16:41:14;101398.06;;;18.23;100.00
59170;BME280;52474;52.236;5.114;2023-08-08T16:43:42;101386.34;;;18.08;100.00
59170;BME280;52474;52.236;5.114;2023-08-08T16:46:13;101377.78;;;17.96;100.00
59170;BME280;52474;52.236;5.114;2023-08-08T16:48:41;101374.47;;;17.94;100.00
59170;BME280;52474;52.236;5.114;2023-08-08T16:51:10;101373.44;;;17.95;100.00
59170;BME280;52474;52.236;5.114;2023-08-08T16:53:38;101362.06;;;17.93;100.00
59170;BME280;52474;52.236;5.114;2023-08-08T16:56:08;101356.34;;;17.80;100.00
59170;BME280;52474;52.236;5.114;2023-08-08T16:58:35;101358.47;;;17.76;100.00
59170;BME280;52474;52.236;5.114;2023-08-08T17:01:04;101355.31;;;17.73;100.00
59170;BME280;52474;52.236;5.114;2023-08-08T17:03:33;101362.84;;;17.77;100.00
59170;BME280;52474;52.236;5.114;2023-08-08T17:06:04;101363.69;;;17.70;100.00
59170;BME280;52474;52.236;5.114;2023-08-08T17:08:36;101343.22;;;17.52;100.00
59170;BME280;52474;52.236;5.114;2023-08-08T17:11:08;101375.22;;;17.70;100.00
59170;BME280;52474;52.236;5.114;2023-08-08T17:13:38;101353.47;;;17.65;100.00
59170;BME280;52474;52.236;5.114;2023-08-08T17:16:10;101349.03;;;17.39;100.00
59170;BME280;52474;52.236;5.114;2023-08-08T17:18:49;101351.69;;;17.31;100.00
59170;BME280;52474;52.236;5.114;2023-08-08T17:21:26;101364.06;;;17.32;100.00
59170;BME280;52474;52.236;5.114;2023-08-08T17:23:54;101364.59;;;17.36;100.00
59170;BME280;52474;52.236;5.114;2023-08-08T17:26:24;101353.88;;;17.28;100.00
59170;BME280;52474;52.236;5.114;2023-08-08T17:28:52;101363.91;;;17.26;100.00
59170;BME280;52474;52.236;5.114;2023-08-08T17:31:21;101359.38;;;17.26;100.00
59170;BME280;52474;52.236;5.114;2023-08-08T17:33:49;101353.00;;;17.19;100.00
59170;BME280;52474;52.236;5.114;2023-08-08T17:36:18;101343.38;;;17.00;100.00
59170;BME280;52474;52.236;5.114;2023-08-08T17:38:50;101362.59;;;16.95;100.00
59170;BME280;52474;52.236;5.114;2023-08-08T17:41:19;101343.09;;;16.77;100.00
59170;BME280;52474;52.236;5.114;2023-08-08T17:43:48;101354.69;;;16.86;100.00
59170;BME280;52474;52.236;5.114;2023-08-08T17:46:19;101363.44;;;16.96;100.00
59170;BME280;52474;52.236;5.114;2023-08-08T17:48:47;101360.25;;;16.92;100.00
59170;BME280;52474;52.236;5.114;2023-08-08T17:51:16;101368.25;;;16.84;100.00
59170;BME280;52474;52.236;5.114;2023-08-08T17:53:44;101369.81;;;16.69;100.00
59170;BME280;52474;52.236;5.114;2023-08-08T17:56:12;101364.91;;;16.64;100.00
59170;BME280;52474;52.236;5.114;2023-08-08T17:58:39;101359.69;;;16.55;100.00
59170;BME280;52474;52.236;5.114;2023-08-08T18:01:12;101320.94;;;16.33;100.00
59170;BME280;52474;52.236;5.114;2023-08-08T18:03:44;101354.34;;;16.55;100.00
59170;BME280;52474;52.236;5.114;2023-08-08T18:06:10;101357.22;;;16.35;100.00
59170;BME280;52474;52.236;5.114;2023-08-08T18:08:37;101355.91;;;16.39;100.00
59170;BME280;52474;52.236;5.114;2023-08-08T18:11:05;101343.47;;;16.30;100.00
59170;BME280;52474;52.236;5.114;2023-08-08T18:13:33;101356.66;;;16.31;100.00
59170;BME280;52474;52.236;5.114;2023-08-08T18:16:01;101356.59;;;16.23;100.00
59170;BME280;52474;52.236;5.114;2023-08-08T18:18:30;101354.09;;;16.22;100.00
59170;BME280;52474;52.236;5.114;2023-08-08T18:20:57;101344.78;;;16.26;100.00
59170;BME280;52474;52.236;5.114;2023-08-08T18:23:25;101312.28;;;16.13;100.00
59170;BME280;52474;52.236;5.114;2023-08-08T18:25:55;101349.88;;;16.37;100.00
59170;BME280;52474;52.236;5.114;2023-08-08T18:28:25;101338.13;;;16.30;100.00
59170;BME280;52474;52.236;5.114;2023-08-08T18:30:56;101315.66;;;15.97;100.00
59170;BME280;52474;52.236;5.114;2023-08-08T18:33:28;101333.75;;;16.03;100.00
59170;BME280;52474;52.236;5.114;2023-08-08T18:36:02;101346.94;;;16.04;100.00
59170;BME280;52474;52.236;5.114;2023-08-08T18:38:33;101336.00;;;16.16;100.00
59170;BME280;52474;52.236;5.114;2023-08-08T18:41:06;101346.31;;;16.10;100.00
59170;BME280;52474;52.236;5.114;2023-08-08T18:43:34;101350.09;;;16.00;100.00
59170;BME280;52474;52.236;5.114;2023-08-08T18:46:03;101320.88;;;15.80;100.00
59170;BME280;52474;52.236;5.114;2023-08-08T18:48:33;101336.19;;;15.96;100.00
59170;BME280;52474;52.236;5.114;2023-08-08T18:51:01;101340.69;;;15.96;100.00
59170;BME280;52474;52.236;5.114;2023-08-08T18:53:30;101327.88;;;15.81;100.00
59170;BME280;52474;52.236;5.114;2023-08-08T18:56:00;101309.81;;;15.75;100.00
59170;BME280;52474;52.236;5.114;2023-08-08T18:58:35;101348.53;;;15.97;100.00
59170;BME280;52474;52.236;5.114;2023-08-08T19:01:08;101336.13;;;15.88;100.00
59170;BME280;52474;52.236;5.114;2023-08-08T19:03:35;101322.09;;;15.86;100.00
59170;BME280;52474;52.236;5.114;2023-08-08T19:06:04;101303.06;;;15.53;100.00
59170;BME280;52474;52.236;5.114;2023-08-08T19:08:34;101338.69;;;15.62;100.00
59170;BME280;52474;52.236;5.114;2023-08-08T19:11:01;101331.56;;;15.53;100.00
59170;BME280;52474;52.236;5.114;2023-08-08T19:13:36;101335.63;;;15.57;100.00
59170;BME280;52474;52.236;5.114;2023-08-08T19:16:05;101345.84;;;15.61;100.00
59170;BME280;52474;52.236;5.114;2023-08-08T19:18:33;101346.75;;;15.52;100.00
59170;BME280;52474;52.236;5.114;2023-08-08T19:21:01;101338.81;;;15.42;100.00
59170;BME280;52474;52.236;5.114;2023-08-08T19:23:31;101316.06;;;15.20;100.00
59170;BME280;52474;52.236;5.114;2023-08-08T19:26:02;101340.13;;;15.38;100.00
59170;BME280;52474;52.236;5.114;2023-08-08T19:28:30;101322.91;;;15.23;100.00
59170;BME280;52474;52.236;5.114;2023-08-08T19:30:56;101338.03;;;15.32;100.00
59170;BME280;52474;52.236;5.114;2023-08-08T19:33:30;101328.50;;;15.30;100.00
59170;BME280;52474;52.236;5.114;2023-08-08T19:35:57;101335.00;;;15.45;100.00
59170;BME280;52474;52.236;5.114;2023-08-08T19:38:28;101327.44;;;15.22;100.00
59170;BME280;52474;52.236;5.114;2023-08-08T19:40:57;101331.69;;;15.33;100.00
59170;BME280;52474;52.236;5.114;2023-08-08T19:43:25;101341.88;;;15.48;100.00
59170;BME280;52474;52.236;5.114;2023-08-08T19:45:55;101353.16;;;15.41;100.00
59170;BME280;52474;52.236;5.114;2023-08-08T19:48:27;101333.41;;;15.34;100.00
59170;BME280;52474;52.236;5.114;2023-08-08T19:51:00;101299.22;;;15.20;100.00
59170;BME280;52474;52.236;5.114;2023-08-08T19:53:31;101336.06;;;15.34;100.00
59170;BME280;52474;52.236;5.114;2023-08-08T19:56:02;101324.25;;;15.37;100.00
59170;BME280;52474;52.236;5.114;2023-08-08T19:58:37;101299.41;;;15.09;100.00